sensor_id;sensor_type;location;lat;lon;timestamp;P1;durP1;ratioP1;P2;durP2;ratioP2
8353;SDS011;4656;48.090;11.498;2023-03-24T00:01:26;4.43;;;3.00;;
8353;SDS011;4656;48.090;11.498;2023-03-24T00:03:31;4.43;;;2.97;;
8353;SDS011;4656;48.090;11.498;2023-03-24T00:05:35;4.43;;;2.85;;
8353;SDS011;4656;48.090;11.498;2023-03-24T00:07:37;5.97;;;3.20;;
8353;SDS011;4656;48.090;11.498;2023-03-24T00:09:40;3.35;;;3.05;;
8353;SDS011;4656;48.090;11.498;2023-03-24T00:11:44;3.83;;;2.90;;
8353;SDS011;4656;48.090;11.498;2023-03-24T00:13:49;5.60;;;2.80;;
8353;SDS011;4656;48.090;11.498;2023-03-24T00:15:51;3.70;;;2.78;;
8353;SDS011;4656;48.090;11.498;2023-03-24T00:17:53;6.15;;;3.30;;
8353;SDS011;4656;48.090;11.498;2023-03-24T00:19:56;4.65;;;2.70;;
8353;SDS011;4656;48.090;11.498;2023-03-24T00:21:59;3.58;;;2.75;;
8353;SDS011;4656;48.090;11.498;2023-03-24T00:24:01;3.73;;;2.70;;
8353;SDS011;4656;48.090;11.498;2023-03-24T00:26:04;3.25;;;2.95;;
8353;SDS011;4656;48.090;11.498;2023-03-24T00:28:09;5.70;;;3.10;;
8353;SDS011;4656;48.090;11.498;2023-03-24T00:30:13;4.20;;;2.92;;
8353;SDS011;4656;48.090;11.498;2023-03-24T00:32:15;3.67;;;2.78;;
8353;SDS011;4656;48.090;11.498;2023-03-24T00:34:18;4.85;;;2.90;;
8353;SDS011;4656;48.090;11.498;2023-03-24T00:36:22;4.25;;;2.92;;
8353;SDS011;4656;48.090;11.498;2023-03-24T00:38:24;3.10;;;2.58;;
8353;SDS011;4656;48.090;11.498;2023-03-24T00:40:27;3.25;;;2.80;;
8353;SDS011;4656;48.090;11.498;2023-03-24T00:42:31;3.50;;;2.80;;
8353;SDS011;4656;48.090;11.498;2023-03-24T00:44:35;4.60;;;2.90;;
8353;SDS011;4656;48.090;11.498;2023-03-24T00:46:38;3.40;;;2.70;;
8353;SDS011;4656;48.090;11.498;2023-03-24T00:48:45;5.05;;;2.75;;
8353;SDS011;4656;48.090;11.498;2023-03-24T00:50:50;7.07;;;3.00;;
8353;SDS011;4656;48.090;11.498;2023-03-24T00:52:53;3.47;;;2.78;;
8353;SDS011;4656;48.090;11.498;2023-03-24T00:54:55;3.20;;;2.70;;
8353;SDS011;4656;48.090;11.498;2023-03-24T00:56:58;5.55;;;2.70;;
8353;SDS011;4656;48.090;11.498;2023-03-24T00:59:02;3.33;;;2.67;;
8353;SDS011;4656;48.090;11.498;2023-03-24T01:01:06;4.15;;;2.85;;
8353;SDS011;4656;48.090;11.498;2023-03-24T01:03:08;5.10;;;2.67;;
8353;SDS011;4656;48.090;11.498;2023-03-24T01:05:11;3.87;;;2.67;;
8353;SDS011;4656;48.090;11.498;2023-03-24T01:07:16;4.57;;;2.47;;
8353;SDS011;4656;48.090;11.498;2023-03-24T01:09:20;2.75;;;2.45;;
8353;SDS011;4656;48.090;11.498;2023-03-24T01:11:23;3.35;;;2.90;;
8353;SDS011;4656;48.090;11.498;2023-03-24T01:13:27;2.95;;;2.47;;
8353;SDS011;4656;48.090;11.498;2023-03-24T01:15:30;3.90;;;2.38;;
8353;SDS011;4656;48.090;11.498;2023-03-24T01:17:34;3.63;;;2.20;;
8353;SDS011;4656;48.090;11.498;2023-03-24T01:19:36;3.37;;;2.50;;
8353;SDS011;4656;48.090;11.498;2023-03-24T01:21:39;3.20;;;2.38;;
8353;SDS011;4656;48.090;11.498;2023-03-24T01:23:42;2.63;;;2.42;;
8353;SDS011;4656;48.090;11.498;2023-03-24T01:25:44;2.47;;;2.00;;
8353;SDS011;4656;48.090;11.498;2023-03-24T01:27:48;2.90;;;2.33;;
8353;SDS011;4656;48.090;11.498;2023-03-24T01:29:50;3.13;;;2.13;;
8353;SDS011;4656;48.090;11.498;2023-03-24T01:31:52;3.72;;;2.45;;
8353;SDS011;4656;48.090;11.498;2023-03-24T01:33:56;3.20;;;2.55;;
8353;SDS011;4656;48.090;11.498;2023-03-24T01:35:58;3.92;;;2.80;;
8353;SDS011;4656;48.090;11.498;2023-03-24T01:38:00;3.65;;;2.10;;
8353;SDS011;4656;48.090;11.498;2023-03-24T01:40:06;4.97;;;2.60;;
8353;SDS011;4656;48.090;11.498;2023-03-24T01:42:10;4.53;;;2.60;;
8353;SDS011;4656;48.090;11.498;2023-03-24T01:44:23;2.90;;;2.47;;
8353;SDS011;4656;48.090;11.498;2023-03-24T01:46:26;3.75;;;2.42;;
8353;SDS011;4656;48.090;11.498;2023-03-24T01:48:34;4.10;;;2.47;;
8353;SDS011;4656;48.090;11.498;2023-03-24T01:50:39;4.72;;;2.50;;
8353;SDS011;4656;48.090;11.498;2023-03-24T01:52:43;3.22;;;2.40;;
8353;SDS011;4656;48.090;11.498;2023-03-24T01:54:46;3.03;;;2.38;;
8353;SDS011;4656;48.090;11.498;2023-03-24T01:56:49;4.40;;;3.00;;
8353;SDS011;4656;48.090;11.498;2023-03-24T01:58:54;4.95;;;2.60;;
8353;SDS011;4656;48.090;11.498;2023-03-24T02:00:58;4.18;;;2.28;;
8353;SDS011;4656;48.090;11.498;2023-03-24T02:03:02;3.97;;;2.50;;
8353;SDS011;4656;48.090;11.498;2023-03-24T02:05:07;2.83;;;2.33;;
8353;SDS011;4656;48.090;11.498;2023-03-24T02:07:14;4.30;;;2.50;;
8353;SDS011;4656;48.090;11.498;2023-03-24T02:09:17;3.72;;;2.65;;
8353;SDS011;4656;48.090;11.498;2023-03-24T02:11:19;4.43;;;2.60;;
8353;SDS011;4656;48.090;11.498;2023-03-24T02:13:22;3.20;;;2.50;;
8353;SDS011;4656;48.090;11.498;2023-03-24T02:15:25;4.05;;;2.50;;
8353;SDS011;4656;48.090;11.498;2023-03-24T02:19:56;2.88;;;2.60;;
8353;SDS011;4656;48.090;11.498;2023-03-24T02:27:02;3.20;;;2.70;;
8353;SDS011;4656;48.090;11.498;2023-03-24T02:29:12;3.53;;;2.58;;
8353;SDS011;4656;48.090;11.498;2023-03-24T02:33:47;4.00;;;2.50;;
8353;SDS011;4656;48.090;11.498;2023-03-24T02:36:06;3.60;;;2.60;;
8353;SDS011;4656;48.090;11.498;2023-03-24T02:40:34;4.80;;;2.70;;
8353;SDS011;4656;48.090;11.498;2023-03-24T02:42:40;3.40;;;2.40;;
8353;SDS011;4656;48.090;11.498;2023-03-24T02:44:46;3.17;;;2.40;;
8353;SDS011;4656;48.090;11.498;2023-03-24T02:46:53;5.18;;;2.63;;
8353;SDS011;4656;48.090;11.498;2023-03-24T02:48:59;5.07;;;3.00;;
8353;SDS011;4656;48.090;11.498;2023-03-24T02:51:06;3.30;;;2.60;;
8353;SDS011;4656;48.090;11.498;2023-03-24T02:53:10;3.47;;;2.73;;
8353;SDS011;4656;48.090;11.498;2023-03-24T02:55:16;4.07;;;2.60;;
8353;SDS011;4656;48.090;11.498;2023-03-24T02:57:23;3.70;;;2.60;;
8353;SDS011;4656;48.090;11.498;2023-03-24T02:59:30;5.70;;;2.80;;
8353;SDS011;4656;48.090;11.498;2023-03-24T03:01:34;3.75;;;3.03;;
8353;SDS011;4656;48.090;11.498;2023-03-24T03:03:41;3.28;;;2.60;;
8353;SDS011;4656;48.090;11.498;2023-03-24T03:05:44;4.63;;;3.00;;
8353;SDS011;4656;48.090;11.498;2023-03-24T03:07:48;4.22;;;2.67;;
8353;SDS011;4656;48.090;11.498;2023-03-24T03:09:53;4.50;;;2.80;;
8353;SDS011;4656;48.090;11.498;2023-03-24T03:11:56;3.80;;;2.78;;
8353;SDS011;4656;48.090;11.498;2023-03-24T03:14:02;4.40;;;3.00;;
8353;SDS011;4656;48.090;11.498;2023-03-24T03:16:10;3.70;;;2.80;;
8353;SDS011;4656;48.090;11.498;2023-03-24T03:18:15;4.63;;;2.92;;
8353;SDS011;4656;48.090;11.498;2023-03-24T03:20:19;3.07;;;2.57;;
8353;SDS011;4656;48.090;11.498;2023-03-24T03:22:23;3.38;;;2.90;;
8353;SDS011;4656;48.090;11.498;2023-03-24T03:24:28;3.00;;;2.70;;
8353;SDS011;4656;48.090;11.498;2023-03-24T03:26:32;5.60;;;3.03;;
8353;SDS011;4656;48.090;11.498;2023-03-24T03:28:35;6.00;;;3.08;;
8353;SDS011;4656;48.090;11.498;2023-03-24T03:30:42;3.63;;;3.15;;
8353;SDS011;4656;48.090;11.498;2023-03-24T03:32:47;3.33;;;3.00;;
8353;SDS011;4656;48.090;11.498;2023-03-24T03:34:54;3.42;;;3.10;;
8353;SDS011;4656;48.090;11.498;2023-03-24T03:36:58;3.50;;;3.13;;
8353;SDS011;4656;48.090;11.498;2023-03-24T03:39:04;6.15;;;3.13;;
8353;SDS011;4656;48.090;11.498;2023-03-24T03:41:09;4.25;;;3.10;;
8353;SDS011;4656;48.090;11.498;2023-03-24T03:43:11;3.90;;;3.10;;
8353;SDS011;4656;48.090;11.498;2023-03-24T03:45:15;4.30;;;3.22;;
8353;SDS011;4656;48.090;11.498;2023-03-24T03:47:18;4.45;;;3.20;;
8353;SDS011;4656;48.090;11.498;2023-03-24T03:49:22;3.80;;;3.10;;
8353;SDS011;4656;48.090;11.498;2023-03-24T03:51:24;4.40;;;3.55;;
8353;SDS011;4656;48.090;11.498;2023-03-24T03:53:36;7.35;;;3.50;;
8353;SDS011;4656;48.090;11.498;2023-03-24T03:55:39;4.13;;;3.45;;
8353;SDS011;4656;48.090;11.498;2023-03-24T03:57:42;4.43;;;3.47;;
8353;SDS011;4656;48.090;11.498;2023-03-24T03:59:44;3.85;;;3.45;;
8353;SDS011;4656;48.090;11.498;2023-03-24T04:01:46;4.97;;;3.50;;
8353;SDS011;4656;48.090;11.498;2023-03-24T04:03:59;6.43;;;3.25;;
8353;SDS011;4656;48.090;11.498;2023-03-24T04:06:08;6.23;;;3.40;;
8353;SDS011;4656;48.090;11.498;2023-03-24T04:08:24;5.53;;;3.55;;
8353;SDS011;4656;48.090;11.498;2023-03-24T04:10:33;6.45;;;3.28;;
8353;SDS011;4656;48.090;11.498;2023-03-24T04:12:45;4.60;;;3.30;;
8353;SDS011;4656;48.090;11.498;2023-03-24T04:14:57;4.72;;;3.15;;
8353;SDS011;4656;48.090;11.498;2023-03-24T04:17:06;4.13;;;3.20;;
8353;SDS011;4656;48.090;11.498;2023-03-24T04:19:18;4.05;;;3.45;;
8353;SDS011;4656;48.090;11.498;2023-03-24T04:21:26;4.60;;;3.53;;
8353;SDS011;4656;48.090;11.498;2023-03-24T04:23:35;4.38;;;3.55;;
8353;SDS011;4656;48.090;11.498;2023-03-24T04:25:41;5.23;;;3.57;;
8353;SDS011;4656;48.090;11.498;2023-03-24T04:27:50;4.00;;;3.30;;
8353;SDS011;4656;48.090;11.498;2023-03-24T04:30:01;4.60;;;3.40;;
8353;SDS011;4656;48.090;11.498;2023-03-24T04:32:09;4.40;;;3.40;;
8353;SDS011;4656;48.090;11.498;2023-03-24T04:34:20;4.82;;;3.40;;
8353;SDS011;4656;48.090;11.498;2023-03-24T04:36:25;5.43;;;3.53;;
8353;SDS011;4656;48.090;11.498;2023-03-24T04:38:31;4.22;;;3.63;;
8353;SDS011;4656;48.090;11.498;2023-03-24T04:40:35;4.40;;;3.50;;
8353;SDS011;4656;48.090;11.498;2023-03-24T04:42:41;5.53;;;3.60;;
8353;SDS011;4656;48.090;11.498;2023-03-24T04:44:45;4.47;;;3.75;;
8353;SDS011;4656;48.090;11.498;2023-03-24T04:46:52;5.30;;;3.80;;
8353;SDS011;4656;48.090;11.498;2023-03-24T04:48:56;5.45;;;3.50;;
8353;SDS011;4656;48.090;11.498;2023-03-24T04:51:00;4.13;;;3.40;;
8353;SDS011;4656;48.090;11.498;2023-03-24T04:53:03;5.20;;;3.65;;
8353;SDS011;4656;48.090;11.498;2023-03-24T04:55:15;5.18;;;3.40;;
8353;SDS011;4656;48.090;11.498;2023-03-24T04:57:22;4.60;;;3.10;;
8353;SDS011;4656;48.090;11.498;2023-03-24T04:59:26;4.35;;;3.40;;
8353;SDS011;4656;48.090;11.498;2023-03-24T05:01:29;4.00;;;3.55;;
8353;SDS011;4656;48.090;11.498;2023-03-24T05:03:31;4.82;;;3.45;;
8353;SDS011;4656;48.090;11.498;2023-03-24T05:05:37;4.43;;;3.25;;
8353;SDS011;4656;48.090;11.498;2023-03-24T05:07:40;4.53;;;3.50;;
8353;SDS011;4656;48.090;11.498;2023-03-24T05:09:43;4.68;;;3.40;;
8353;SDS011;4656;48.090;11.498;2023-03-24T05:11:45;5.00;;;3.70;;
8353;SDS011;4656;48.090;11.498;2023-03-24T05:13:47;4.28;;;3.45;;
8353;SDS011;4656;48.090;11.498;2023-03-24T05:15:51;5.82;;;3.90;;
8353;SDS011;4656;48.090;11.498;2023-03-24T05:17:53;5.70;;;4.15;;
8353;SDS011;4656;48.090;11.498;2023-03-24T05:19:55;6.57;;;4.38;;
8353;SDS011;4656;48.090;11.498;2023-03-24T05:21:57;5.30;;;4.40;;
8353;SDS011;4656;48.090;11.498;2023-03-24T05:24:01;7.50;;;4.40;;
8353;SDS011;4656;48.090;11.498;2023-03-24T05:26:04;7.68;;;4.82;;
8353;SDS011;4656;48.090;11.498;2023-03-24T05:28:06;6.65;;;4.60;;
8353;SDS011;4656;48.090;11.498;2023-03-24T05:30:09;6.43;;;4.72;;
8353;SDS011;4656;48.090;11.498;2023-03-24T05:32:11;9.70;;;5.13;;
8353;SDS011;4656;48.090;11.498;2023-03-24T05:34:13;7.05;;;5.18;;
8353;SDS011;4656;48.090;11.498;2023-03-24T05:36:15;6.47;;;4.30;;
8353;SDS011;4656;48.090;11.498;2023-03-24T05:38:17;7.28;;;4.95;;
8353;SDS011;4656;48.090;11.498;2023-03-24T05:40:21;6.82;;;5.03;;
8353;SDS011;4656;48.090;11.498;2023-03-24T05:42:23;9.75;;;5.20;;
8353;SDS011;4656;48.090;11.498;2023-03-24T05:44:25;9.15;;;5.05;;
8353;SDS011;4656;48.090;11.498;2023-03-24T05:46:27;5.43;;;4.55;;
8353;SDS011;4656;48.090;11.498;2023-03-24T05:48:30;7.05;;;4.80;;
8353;SDS011;4656;48.090;11.498;2023-03-24T05:50:32;6.97;;;4.43;;
8353;SDS011;4656;48.090;11.498;2023-03-24T05:52:44;6.95;;;4.30;;
8353;SDS011;4656;48.090;11.498;2023-03-24T05:54:46;5.93;;;4.50;;
8353;SDS011;4656;48.090;11.498;2023-03-24T05:56:52;8.88;;;5.00;;
8353;SDS011;4656;48.090;11.498;2023-03-24T05:58:54;6.47;;;4.53;;
8353;SDS011;4656;48.090;11.498;2023-03-24T06:00:56;6.53;;;4.45;;
8353;SDS011;4656;48.090;11.498;2023-03-24T06:03:01;7.63;;;4.80;;
8353;SDS011;4656;48.090;11.498;2023-03-24T06:05:03;5.35;;;4.75;;
8353;SDS011;4656;48.090;11.498;2023-03-24T06:07:07;8.00;;;4.85;;
8353;SDS011;4656;48.090;11.498;2023-03-24T06:09:09;6.72;;;4.95;;
8353;SDS011;4656;48.090;11.498;2023-03-24T06:11:11;6.95;;;4.53;;
8353;SDS011;4656;48.090;11.498;2023-03-24T06:13:14;6.67;;;4.80;;
8353;SDS011;4656;48.090;11.498;2023-03-24T06:15:17;7.40;;;4.93;;
8353;SDS011;4656;48.090;11.498;2023-03-24T06:17:19;5.68;;;4.40;;
8353;SDS011;4656;48.090;11.498;2023-03-24T06:19:21;7.25;;;4.75;;
8353;SDS011;4656;48.090;11.498;2023-03-24T06:21:23;8.20;;;5.22;;
8353;SDS011;4656;48.090;11.498;2023-03-24T06:23:29;6.10;;;4.75;;
8353;SDS011;4656;48.090;11.498;2023-03-24T06:25:34;6.15;;;4.82;;
8353;SDS011;4656;48.090;11.498;2023-03-24T06:27:36;6.40;;;4.95;;
8353;SDS011;4656;48.090;11.498;2023-03-24T06:29:45;8.63;;;5.32;;
8353;SDS011;4656;48.090;11.498;2023-03-24T06:31:48;8.73;;;6.10;;
8353;SDS011;4656;48.090;11.498;2023-03-24T06:33:50;9.35;;;6.10;;
8353;SDS011;4656;48.090;11.498;2023-03-24T06:35:53;7.90;;;6.32;;
8353;SDS011;4656;48.090;11.498;2023-03-24T06:37:55;9.95;;;6.57;;
8353;SDS011;4656;48.090;11.498;2023-03-24T06:39:57;8.50;;;6.00;;
8353;SDS011;4656;48.090;11.498;2023-03-24T06:42:00;8.32;;;5.65;;
8353;SDS011;4656;48.090;11.498;2023-03-24T06:44:02;8.38;;;5.93;;
8353;SDS011;4656;48.090;11.498;2023-03-24T06:46:06;6.60;;;5.82;;
8353;SDS011;4656;48.090;11.498;2023-03-24T06:48:09;7.00;;;5.40;;
8353;SDS011;4656;48.090;11.498;2023-03-24T06:50:11;5.88;;;4.68;;
8353;SDS011;4656;48.090;11.498;2023-03-24T06:52:13;6.43;;;5.07;;
8353;SDS011;4656;48.090;11.498;2023-03-24T06:54:15;5.75;;;4.95;;
8353;SDS011;4656;48.090;11.498;2023-03-24T06:56:18;7.35;;;5.93;;
8353;SDS011;4656;48.090;11.498;2023-03-24T06:58:20;6.25;;;5.18;;
8353;SDS011;4656;48.090;11.498;2023-03-24T07:00:22;6.10;;;4.97;;
8353;SDS011;4656;48.090;11.498;2023-03-24T07:02:26;5.72;;;4.93;;
8353;SDS011;4656;48.090;11.498;2023-03-24T07:04:33;5.55;;;4.70;;
8353;SDS011;4656;48.090;11.498;2023-03-24T07:06:36;5.55;;;4.88;;
8353;SDS011;4656;48.090;11.498;2023-03-24T07:08:38;7.00;;;4.97;;
8353;SDS011;4656;48.090;11.498;2023-03-24T07:10:40;7.00;;;5.55;;
8353;SDS011;4656;48.090;11.498;2023-03-24T07:12:42;6.20;;;5.20;;
8353;SDS011;4656;48.090;11.498;2023-03-24T07:14:45;7.70;;;5.30;;
8353;SDS011;4656;48.090;11.498;2023-03-24T07:16:49;8.70;;;4.85;;
8353;SDS011;4656;48.090;11.498;2023-03-24T07:18:52;5.93;;;5.10;;
8353;SDS011;4656;48.090;11.498;2023-03-24T07:21:00;8.30;;;6.38;;
8353;SDS011;4656;48.090;11.498;2023-03-24T07:23:02;8.48;;;5.45;;
8353;SDS011;4656;48.090;11.498;2023-03-24T07:25:04;6.70;;;5.97;;
8353;SDS011;4656;48.090;11.498;2023-03-24T07:27:07;7.53;;;5.72;;
8353;SDS011;4656;48.090;11.498;2023-03-24T07:29:09;8.13;;;5.80;;
8353;SDS011;4656;48.090;11.498;2023-03-24T07:31:11;6.55;;;5.22;;
8353;SDS011;4656;48.090;11.498;2023-03-24T07:33:13;6.77;;;5.53;;
8353;SDS011;4656;48.090;11.498;2023-03-24T07:35:17;6.63;;;5.68;;
8353;SDS011;4656;48.090;11.498;2023-03-24T07:37:19;7.70;;;5.25;;
8353;SDS011;4656;48.090;11.498;2023-03-24T07:39:22;6.75;;;5.60;;
8353;SDS011;4656;48.090;11.498;2023-03-24T07:41:24;9.38;;;5.90;;
8353;SDS011;4656;48.090;11.498;2023-03-24T07:43:26;6.60;;;5.10;;
8353;SDS011;4656;48.090;11.498;2023-03-24T07:45:28;7.28;;;5.40;;
8353;SDS011;4656;48.090;11.498;2023-03-24T07:47:30;7.93;;;5.50;;
8353;SDS011;4656;48.090;11.498;2023-03-24T07:49:33;6.07;;;5.13;;
8353;SDS011;4656;48.090;11.498;2023-03-24T07:51:36;6.97;;;5.20;;
8353;SDS011;4656;48.090;11.498;2023-03-24T07:53:38;8.32;;;5.75;;
8353;SDS011;4656;48.090;11.498;2023-03-24T07:55:40;5.65;;;5.05;;
8353;SDS011;4656;48.090;11.498;2023-03-24T07:57:44;5.47;;;4.53;;
8353;SDS011;4656;48.090;11.498;2023-03-24T07:59:46;7.45;;;4.28;;
8353;SDS011;4656;48.090;11.498;2023-03-24T08:01:49;6.77;;;3.97;;
8353;SDS011;4656;48.090;11.498;2023-03-24T08:03:51;5.17;;;3.40;;
8353;SDS011;4656;48.090;11.498;2023-03-24T08:05:55;3.92;;;3.30;;
8353;SDS011;4656;48.090;11.498;2023-03-24T08:07:59;3.20;;;2.90;;
8353;SDS011;4656;48.090;11.498;2023-03-24T08:10:01;4.07;;;3.33;;
8353;SDS011;4656;48.090;11.498;2023-03-24T08:12:04;5.32;;;2.70;;
8353;SDS011;4656;48.090;11.498;2023-03-24T08:14:06;3.72;;;2.92;;
8353;SDS011;4656;48.090;11.498;2023-03-24T08:16:08;3.00;;;2.72;;
8353;SDS011;4656;48.090;11.498;2023-03-24T08:18:10;4.10;;;3.15;;
8353;SDS011;4656;48.090;11.498;2023-03-24T08:20:13;3.50;;;3.10;;
8353;SDS011;4656;48.090;11.498;2023-03-24T08:22:15;3.28;;;2.65;;
8353;SDS011;4656;48.090;11.498;2023-03-24T08:24:18;3.17;;;2.90;;
8353;SDS011;4656;48.090;11.498;2023-03-24T08:26:20;3.92;;;3.00;;
8353;SDS011;4656;48.090;11.498;2023-03-24T08:28:25;3.75;;;2.80;;
8353;SDS011;4656;48.090;11.498;2023-03-24T08:30:28;3.20;;;2.90;;
8353;SDS011;4656;48.090;11.498;2023-03-24T08:32:30;4.40;;;2.80;;
8353;SDS011;4656;48.090;11.498;2023-03-24T08:34:32;3.00;;;2.70;;
8353;SDS011;4656;48.090;11.498;2023-03-24T08:36:34;3.75;;;2.60;;
8353;SDS011;4656;48.090;11.498;2023-03-24T08:38:36;4.32;;;3.25;;
8353;SDS011;4656;48.090;11.498;2023-03-24T08:40:40;3.65;;;3.33;;
8353;SDS011;4656;48.090;11.498;2023-03-24T08:42:43;4.32;;;3.00;;
8353;SDS011;4656;48.090;11.498;2023-03-24T08:44:45;3.63;;;3.33;;
8353;SDS011;4656;48.090;11.498;2023-03-24T08:46:48;3.95;;;3.05;;
8353;SDS011;4656;48.090;11.498;2023-03-24T08:48:50;3.75;;;3.08;;
8353;SDS011;4656;48.090;11.498;2023-03-24T08:50:52;5.55;;;3.40;;
8353;SDS011;4656;48.090;11.498;2023-03-24T08:52:55;3.65;;;3.15;;
8353;SDS011;4656;48.090;11.498;2023-03-24T08:54:57;3.70;;;3.20;;
8353;SDS011;4656;48.090;11.498;2023-03-24T08:57:01;5.53;;;3.10;;
8353;SDS011;4656;48.090;11.498;2023-03-24T08:59:03;3.30;;;2.97;;
8353;SDS011;4656;48.090;11.498;2023-03-24T09:01:05;4.60;;;2.92;;
8353;SDS011;4656;48.090;11.498;2023-03-24T09:03:08;3.28;;;2.97;;
8353;SDS011;4656;48.090;11.498;2023-03-24T09:05:11;4.07;;;2.70;;
8353;SDS011;4656;48.090;11.498;2023-03-24T09:07:14;3.78;;;2.72;;
8353;SDS011;4656;48.090;11.498;2023-03-24T09:09:16;4.05;;;2.95;;
8353;SDS011;4656;48.090;11.498;2023-03-24T09:11:19;4.00;;;2.80;;
8353;SDS011;4656;48.090;11.498;2023-03-24T09:13:24;3.55;;;2.53;;
8353;SDS011;4656;48.090;11.498;2023-03-24T09:15:28;2.60;;;2.40;;
8353;SDS011;4656;48.090;11.498;2023-03-24T09:17:31;3.10;;;2.50;;
8353;SDS011;4656;48.090;11.498;2023-03-24T09:19:38;2.90;;;2.38;;
8353;SDS011;4656;48.090;11.498;2023-03-24T09:21:50;2.60;;;2.38;;
8353;SDS011;4656;48.090;11.498;2023-03-24T09:23:54;2.63;;;2.20;;
8353;SDS011;4656;48.090;11.498;2023-03-24T09:25:58;2.45;;;2.13;;
8353;SDS011;4656;48.090;11.498;2023-03-24T09:28:00;2.40;;;2.20;;
8353;SDS011;4656;48.090;11.498;2023-03-24T09:30:04;2.72;;;2.13;;
8353;SDS011;4656;48.090;11.498;2023-03-24T09:32:07;3.05;;;2.75;;
8353;SDS011;4656;48.090;11.498;2023-03-24T09:34:11;3.15;;;2.70;;
8353;SDS011;4656;48.090;11.498;2023-03-24T09:36:25;3.00;;;2.60;;
8353;SDS011;4656;48.090;11.498;2023-03-24T09:38:33;3.20;;;2.90;;
8353;SDS011;4656;48.090;11.498;2023-03-24T09:40:35;4.32;;;2.60;;
8353;SDS011;4656;48.090;11.498;2023-03-24T09:42:38;3.63;;;2.55;;
8353;SDS011;4656;48.090;11.498;2023-03-24T09:44:42;3.25;;;2.95;;
8353;SDS011;4656;48.090;11.498;2023-03-24T09:46:49;4.20;;;2.97;;
8353;SDS011;4656;48.090;11.498;2023-03-24T09:48:55;3.20;;;2.90;;
8353;SDS011;4656;48.090;11.498;2023-03-24T09:50:58;3.78;;;3.03;;
8353;SDS011;4656;48.090;11.498;2023-03-24T09:53:03;3.92;;;3.13;;
8353;SDS011;4656;48.090;11.498;2023-03-24T09:55:09;3.97;;;3.20;;
8353;SDS011;4656;48.090;11.498;2023-03-24T09:57:15;3.78;;;3.10;;
8353;SDS011;4656;48.090;11.498;2023-03-24T09:59:20;3.92;;;3.40;;
8353;SDS011;4656;48.090;11.498;2023-03-24T10:01:22;4.40;;;3.03;;
8353;SDS011;4656;48.090;11.498;2023-03-24T10:03:26;5.00;;;3.40;;
8353;SDS011;4656;48.090;11.498;2023-03-24T10:05:31;4.28;;;3.60;;
8353;SDS011;4656;48.090;11.498;2023-03-24T10:07:36;3.80;;;3.50;;
8353;SDS011;4656;48.090;11.498;2023-03-24T10:09:40;5.82;;;3.47;;
8353;SDS011;4656;48.090;11.498;2023-03-24T10:11:44;5.18;;;3.50;;
8353;SDS011;4656;48.090;11.498;2023-03-24T10:13:50;4.78;;;3.20;;
8353;SDS011;4656;48.090;11.498;2023-03-24T10:15:57;6.00;;;3.63;;
8353;SDS011;4656;48.090;11.498;2023-03-24T10:18:04;3.92;;;3.40;;
8353;SDS011;4656;48.090;11.498;2023-03-24T10:20:15;5.07;;;3.63;;
8353;SDS011;4656;48.090;11.498;2023-03-24T10:22:23;4.70;;;3.90;;
8353;SDS011;4656;48.090;11.498;2023-03-24T10:24:28;4.93;;;3.33;;
8353;SDS011;4656;48.090;11.498;2023-03-24T10:26:35;4.40;;;3.87;;
8353;SDS011;4656;48.090;11.498;2023-03-24T10:28:40;5.13;;;4.00;;
8353;SDS011;4656;48.090;11.498;2023-03-24T10:30:48;4.28;;;3.65;;
8353;SDS011;4656;48.090;11.498;2023-03-24T10:32:53;6.35;;;3.80;;
8353;SDS011;4656;48.090;11.498;2023-03-24T10:34:56;4.65;;;3.83;;
8353;SDS011;4656;48.090;11.498;2023-03-24T10:37:07;4.40;;;3.30;;
8353;SDS011;4656;48.090;11.498;2023-03-24T10:39:12;4.05;;;2.95;;
8353;SDS011;4656;48.090;11.498;2023-03-24T10:41:15;3.90;;;3.03;;
8353;SDS011;4656;48.090;11.498;2023-03-24T10:43:18;5.57;;;3.25;;
8353;SDS011;4656;48.090;11.498;2023-03-24T10:45:23;3.30;;;3.00;;
8353;SDS011;4656;48.090;11.498;2023-03-24T10:47:27;4.03;;;2.88;;
8353;SDS011;4656;48.090;11.498;2023-03-24T10:49:31;7.47;;;3.25;;
8353;SDS011;4656;48.090;11.498;2023-03-24T10:51:34;4.53;;;2.90;;
8353;SDS011;4656;48.090;11.498;2023-03-24T10:53:38;3.75;;;2.80;;
8353;SDS011;4656;48.090;11.498;2023-03-24T10:55:40;3.00;;;2.60;;
8353;SDS011;4656;48.090;11.498;2023-03-24T10:57:43;4.43;;;3.15;;
8353;SDS011;4656;48.090;11.498;2023-03-24T10:59:49;4.00;;;2.80;;
8353;SDS011;4656;48.090;11.498;2023-03-24T11:02:00;2.88;;;2.45;;
8353;SDS011;4656;48.090;11.498;2023-03-24T11:04:04;3.03;;;2.75;;
8353;SDS011;4656;48.090;11.498;2023-03-24T11:06:06;3.27;;;2.50;;
8353;SDS011;4656;48.090;11.498;2023-03-24T11:08:13;3.17;;;2.58;;
8353;SDS011;4656;48.090;11.498;2023-03-24T11:10:28;3.08;;;2.75;;
8353;SDS011;4656;48.090;11.498;2023-03-24T11:12:31;2.95;;;2.63;;
8353;SDS011;4656;48.090;11.498;2023-03-24T11:14:34;3.50;;;2.72;;
8353;SDS011;4656;48.090;11.498;2023-03-24T11:16:45;4.57;;;3.13;;
8353;SDS011;4656;48.090;11.498;2023-03-24T11:18:54;3.50;;;2.92;;
8353;SDS011;4656;48.090;11.498;2023-03-24T11:20:57;4.90;;;3.00;;
8353;SDS011;4656;48.090;11.498;2023-03-24T11:23:03;4.28;;;3.10;;
8353;SDS011;4656;48.090;11.498;2023-03-24T11:25:07;4.93;;;3.20;;
8353;SDS011;4656;48.090;11.498;2023-03-24T11:27:12;4.35;;;3.40;;
8353;SDS011;4656;48.090;11.498;2023-03-24T11:29:17;3.70;;;3.30;;
8353;SDS011;4656;48.090;11.498;2023-03-24T11:31:21;3.90;;;3.53;;
8353;SDS011;4656;48.090;11.498;2023-03-24T11:33:25;5.93;;;3.50;;
8353;SDS011;4656;48.090;11.498;2023-03-24T11:35:27;6.32;;;4.10;;
8353;SDS011;4656;48.090;11.498;2023-03-24T11:37:30;5.07;;;4.00;;
8353;SDS011;4656;48.090;11.498;2023-03-24T11:39:33;4.57;;;3.90;;
8353;SDS011;4656;48.090;11.498;2023-03-24T11:41:36;4.03;;;3.63;;
8353;SDS011;4656;48.090;11.498;2023-03-24T11:43:40;6.67;;;4.40;;
8353;SDS011;4656;48.090;11.498;2023-03-24T11:45:42;4.97;;;3.78;;
8353;SDS011;4656;48.090;11.498;2023-03-24T11:47:45;5.55;;;3.05;;
8353;SDS011;4656;48.090;11.498;2023-03-24T11:49:48;3.78;;;2.92;;
8353;SDS011;4656;48.090;11.498;2023-03-24T11:51:52;3.85;;;3.00;;
8353;SDS011;4656;48.090;11.498;2023-03-24T11:53:55;3.45;;;2.85;;
8353;SDS011;4656;48.090;11.498;2023-03-24T11:56:00;6.05;;;3.35;;
8353;SDS011;4656;48.090;11.498;2023-03-24T11:58:07;3.38;;;2.40;;
8353;SDS011;4656;48.090;11.498;2023-03-24T12:00:13;2.88;;;2.38;;
8353;SDS011;4656;48.090;11.498;2023-03-24T12:02:21;3.10;;;2.30;;
8353;SDS011;4656;48.090;11.498;2023-03-24T12:04:27;4.88;;;2.53;;
8353;SDS011;4656;48.090;11.498;2023-03-24T12:06:42;2.47;;;2.25;;
8353;SDS011;4656;48.090;11.498;2023-03-24T12:08:53;2.38;;;2.17;;
8353;SDS011;4656;48.090;11.498;2023-03-24T12:11:13;2.13;;;1.92;;
8353;SDS011;4656;48.090;11.498;2023-03-24T12:13:24;2.30;;;2.10;;
8353;SDS011;4656;48.090;11.498;2023-03-24T12:15:38;1.90;;;1.80;;
8353;SDS011;4656;48.090;11.498;2023-03-24T12:17:41;2.45;;;2.25;;
8353;SDS011;4656;48.090;11.498;2023-03-24T12:19:54;2.20;;;1.98;;
8353;SDS011;4656;48.090;11.498;2023-03-24T12:22:10;2.38;;;2.17;;
8353;SDS011;4656;48.090;11.498;2023-03-24T12:24:19;2.95;;;2.30;;
8353;SDS011;4656;48.090;11.498;2023-03-24T12:26:27;5.32;;;2.70;;
8353;SDS011;4656;48.090;11.498;2023-03-24T12:28:42;3.13;;;2.40;;
8353;SDS011;4656;48.090;11.498;2023-03-24T12:30:49;4.22;;;2.20;;
8353;SDS011;4656;48.090;11.498;2023-03-24T12:32:58;3.17;;;2.50;;
8353;SDS011;4656;48.090;11.498;2023-03-24T12:35:10;5.68;;;2.50;;
8353;SDS011;4656;48.090;11.498;2023-03-24T12:37:20;4.03;;;2.42;;
8353;SDS011;4656;48.090;11.498;2023-03-24T12:39:26;2.75;;;2.30;;
8353;SDS011;4656;48.090;11.498;2023-03-24T12:41:39;4.38;;;2.50;;
8353;SDS011;4656;48.090;11.498;2023-03-24T12:43:47;3.63;;;3.00;;
8353;SDS011;4656;48.090;11.498;2023-03-24T12:45:55;3.58;;;2.70;;
8353;SDS011;4656;48.090;11.498;2023-03-24T12:48:17;3.15;;;2.90;;
8353;SDS011;4656;48.090;11.498;2023-03-24T12:50:25;3.85;;;2.88;;
8353;SDS011;4656;48.090;11.498;2023-03-24T12:52:39;4.50;;;3.00;;
8353;SDS011;4656;48.090;11.498;2023-03-24T12:54:46;5.57;;;2.88;;